Aviation Digital Data Service (ADDS)

Output produced by METARs form (0651 UTC 24 March 2019)
found at http://www.aviationweather.gov/metar/data/
 
VNKT 240620Z 25004KT 6000 FEW020 25/08 Q1017 NOSIG
TAF VNKT 240500Z 2406/2506 12004KT 5000 HZ FEW020 
     BECMG 2407/2409 28008KT 8000 FEW025 SCT030 
     PROB30 2410/2412 VRB12KT 5000 -TSRA FEW025CB BKN100 
     BECMG 2413/2415 20003KT 6000 FEW015 SCT030 
     BECMG 2500/2502 VRB02KT 3000 BR FEW015 SCT025 
     PROB30 2501/2503 1000 BR 
     BECMG 2504/2505 19004KT 5000 HZ FEW020 SCT100